sensor_id;sensor_type;location;lat;lon;timestamp;P1;durP1;ratioP1;P2;durP2;ratioP2
37407;SDS011;24866;50.248;8.252;2023-10-31T00:02:20;0.93;;;0.25;;
37407;SDS011;24866;50.248;8.252;2023-10-31T00:04:51;1.10;;;0.47;;
37407;SDS011;24866;50.248;8.252;2023-10-31T00:07:21;2.42;;;0.50;;
37407;SDS011;24866;50.248;8.252;2023-10-31T00:09:50;1.80;;;0.30;;
37407;SDS011;24866;50.248;8.252;2023-10-31T00:12:20;3.00;;;0.40;;
37407;SDS011;24866;50.248;8.252;2023-10-31T00:14:50;1.08;;;0.30;;
37407;SDS011;24866;50.248;8.252;2023-10-31T00:17:20;2.05;;;0.47;;
37407;SDS011;24866;50.248;8.252;2023-10-31T00:19:51;0.50;;;0.30;;
37407;SDS011;24866;50.248;8.252;2023-10-31T00:22:21;1.55;;;0.30;;
37407;SDS011;24866;50.248;8.252;2023-10-31T00:24:51;0.70;;;0.20;;
37407;SDS011;24866;50.248;8.252;2023-10-31T00:27:20;2.08;;;0.40;;
37407;SDS011;24866;50.248;8.252;2023-10-31T00:29:50;0.38;;;0.20;;
37407;SDS011;24866;50.248;8.252;2023-10-31T00:32:20;0.70;;;0.40;;
37407;SDS011;24866;50.248;8.252;2023-10-31T00:34:51;0.57;;;0.20;;
37407;SDS011;24866;50.248;8.252;2023-10-31T00:37:21;5.55;;;0.47;;
37407;SDS011;24866;50.248;8.252;2023-10-31T00:39:51;0.35;;;0.13;;
37407;SDS011;24866;50.248;8.252;2023-10-31T00:42:21;0.30;;;0.20;;
37407;SDS011;24866;50.248;8.252;2023-10-31T00:44:50;0.55;;;0.10;;
37407;SDS011;24866;50.248;8.252;2023-10-31T00:47:20;1.20;;;0.20;;
37407;SDS011;24866;50.248;8.252;2023-10-31T00:49:51;0.88;;;0.15;;
37407;SDS011;24866;50.248;8.252;2023-10-31T00:52:22;0.50;;;0.10;;
37407;SDS011;24866;50.248;8.252;2023-10-31T00:54:51;1.80;;;0.20;;
37407;SDS011;24866;50.248;8.252;2023-10-31T00:57:21;0.65;;;0.17;;
37407;SDS011;24866;50.248;8.252;2023-10-31T00:59:51;2.78;;;0.30;;
37407;SDS011;24866;50.248;8.252;2023-10-31T01:02:21;1.67;;;0.20;;
37407;SDS011;24866;50.248;8.252;2023-10-31T01:04:54;1.58;;;0.20;;
37407;SDS011;24866;50.248;8.252;2023-10-31T01:07:23;1.40;;;0.20;;
37407;SDS011;24866;50.248;8.252;2023-10-31T01:09:53;2.35;;;0.65;;
37407;SDS011;24866;50.248;8.252;2023-10-31T01:12:23;0.50;;;0.20;;
37407;SDS011;24866;50.248;8.252;2023-10-31T01:14:55;0.52;;;0.10;;
37407;SDS011;24866;50.248;8.252;2023-10-31T01:17:25;1.20;;;0.30;;
37407;SDS011;24866;50.248;8.252;2023-10-31T01:19:56;0.32;;;0.20;;
37407;SDS011;24866;50.248;8.252;2023-10-31T01:22:26;1.20;;;0.25;;
37407;SDS011;24866;50.248;8.252;2023-10-31T01:24:56;0.73;;;0.28;;
37407;SDS011;24866;50.248;8.252;2023-10-31T01:27:26;1.33;;;0.40;;
37407;SDS011;24866;50.248;8.252;2023-10-31T01:29:56;1.05;;;0.40;;
37407;SDS011;24866;50.248;8.252;2023-10-31T01:32:26;1.95;;;0.20;;
37407;SDS011;24866;50.248;8.252;2023-10-31T01:34:57;1.05;;;0.20;;
37407;SDS011;24866;50.248;8.252;2023-10-31T01:37:27;0.45;;;0.25;;
37407;SDS011;24866;50.248;8.252;2023-10-31T01:39:56;2.85;;;0.30;;
37407;SDS011;24866;50.248;8.252;2023-10-31T01:42:26;0.38;;;0.10;;
37407;SDS011;24866;50.248;8.252;2023-10-31T01:44:56;0.70;;;0.20;;
37407;SDS011;24866;50.248;8.252;2023-10-31T01:47:26;0.90;;;0.35;;
37407;SDS011;24866;50.248;8.252;2023-10-31T01:49:57;0.28;;;0.20;;
37407;SDS011;24866;50.248;8.252;2023-10-31T01:52:28;0.40;;;0.20;;
37407;SDS011;24866;50.248;8.252;2023-10-31T01:55:00;1.33;;;0.20;;
37407;SDS011;24866;50.248;8.252;2023-10-31T01:57:31;0.57;;;0.10;;
37407;SDS011;24866;50.248;8.252;2023-10-31T02:00:01;0.10;;;0.10;;
37407;SDS011;24866;50.248;8.252;2023-10-31T02:02:31;0.30;;;0.10;;
37407;SDS011;24866;50.248;8.252;2023-10-31T02:05:05;0.73;;;0.20;;
37407;SDS011;24866;50.248;8.252;2023-10-31T02:07:35;1.92;;;0.22;;
37407;SDS011;24866;50.248;8.252;2023-10-31T02:10:05;0.45;;;0.10;;
37407;SDS011;24866;50.248;8.252;2023-10-31T02:12:37;0.60;;;0.10;;
37407;SDS011;24866;50.248;8.252;2023-10-31T02:15:07;1.92;;;0.30;;
37407;SDS011;24866;50.248;8.252;2023-10-31T02:17:38;0.30;;;0.10;;
37407;SDS011;24866;50.248;8.252;2023-10-31T02:20:09;0.85;;;0.28;;
37407;SDS011;24866;50.248;8.252;2023-10-31T02:22:41;1.02;;;0.20;;
37407;SDS011;24866;50.248;8.252;2023-10-31T02:25:17;1.75;;;0.10;;
37407;SDS011;24866;50.248;8.252;2023-10-31T02:27:47;1.02;;;0.10;;
37407;SDS011;24866;50.248;8.252;2023-10-31T02:30:17;1.85;;;0.25;;
37407;SDS011;24866;50.248;8.252;2023-10-31T02:32:46;0.68;;;0.10;;
37407;SDS011;24866;50.248;8.252;2023-10-31T02:35:17;2.05;;;0.30;;
37407;SDS011;24866;50.248;8.252;2023-10-31T02:37:49;0.73;;;0.35;;
37407;SDS011;24866;50.248;8.252;2023-10-31T02:40:19;0.45;;;0.10;;
37407;SDS011;24866;50.248;8.252;2023-10-31T02:42:49;1.48;;;0.22;;
37407;SDS011;24866;50.248;8.252;2023-10-31T02:45:18;0.63;;;0.30;;
37407;SDS011;24866;50.248;8.252;2023-10-31T02:47:48;2.92;;;0.30;;
37407;SDS011;24866;50.248;8.252;2023-10-31T02:50:18;2.65;;;0.28;;
37407;SDS011;24866;50.248;8.252;2023-10-31T02:52:49;1.48;;;0.20;;
37407;SDS011;24866;50.248;8.252;2023-10-31T02:55:19;1.27;;;0.28;;
37407;SDS011;24866;50.248;8.252;2023-10-31T02:57:49;2.17;;;0.17;;
37407;SDS011;24866;50.248;8.252;2023-10-31T03:00:19;1.13;;;0.20;;
37407;SDS011;24866;50.248;8.252;2023-10-31T03:02:49;1.40;;;0.22;;
37407;SDS011;24866;50.248;8.252;2023-10-31T03:05:19;0.55;;;0.30;;
37407;SDS011;24866;50.248;8.252;2023-10-31T03:07:50;2.25;;;0.20;;
37407;SDS011;24866;50.248;8.252;2023-10-31T03:10:21;0.45;;;0.13;;
37407;SDS011;24866;50.248;8.252;2023-10-31T03:12:50;1.45;;;0.47;;
37407;SDS011;24866;50.248;8.252;2023-10-31T03:15:20;0.60;;;0.22;;
37407;SDS011;24866;50.248;8.252;2023-10-31T03:17:50;2.60;;;0.25;;
37407;SDS011;24866;50.248;8.252;2023-10-31T03:20:20;0.98;;;0.30;;
37407;SDS011;24866;50.248;8.252;2023-10-31T03:22:51;0.40;;;0.10;;
37407;SDS011;24866;50.248;8.252;2023-10-31T03:25:21;1.40;;;0.20;;
37407;SDS011;24866;50.248;8.252;2023-10-31T03:27:51;0.43;;;0.15;;
37407;SDS011;24866;50.248;8.252;2023-10-31T03:30:21;0.90;;;0.40;;
37407;SDS011;24866;50.248;8.252;2023-10-31T03:32:50;0.75;;;0.10;;
37407;SDS011;24866;50.248;8.252;2023-10-31T03:35:20;0.80;;;0.20;;
37407;SDS011;24866;50.248;8.252;2023-10-31T03:37:51;1.95;;;0.20;;
37407;SDS011;24866;50.248;8.252;2023-10-31T03:40:21;2.03;;;0.30;;
37407;SDS011;24866;50.248;8.252;2023-10-31T03:42:51;2.08;;;0.28;;
37407;SDS011;24866;50.248;8.252;2023-10-31T03:45:21;0.70;;;0.22;;
37407;SDS011;24866;50.248;8.252;2023-10-31T03:47:51;1.23;;;0.20;;
37407;SDS011;24866;50.248;8.252;2023-10-31T03:50:21;1.92;;;0.30;;
37407;SDS011;24866;50.248;8.252;2023-10-31T03:52:52;1.30;;;0.25;;
37407;SDS011;24866;50.248;8.252;2023-10-31T03:55:22;0.88;;;0.22;;
37407;SDS011;24866;50.248;8.252;2023-10-31T03:57:52;2.28;;;0.20;;
37407;SDS011;24866;50.248;8.252;2023-10-31T04:00:22;1.13;;;0.35;;
37407;SDS011;24866;50.248;8.252;2023-10-31T04:02:52;0.63;;;0.30;;
37407;SDS011;24866;50.248;8.252;2023-10-31T04:05:21;0.85;;;0.30;;
37407;SDS011;24866;50.248;8.252;2023-10-31T04:07:53;0.63;;;0.28;;
37407;SDS011;24866;50.248;8.252;2023-10-31T04:10:22;1.05;;;0.52;;
37407;SDS011;24866;50.248;8.252;2023-10-31T04:12:53;2.58;;;0.30;;
37407;SDS011;24866;50.248;8.252;2023-10-31T04:15:23;1.17;;;0.50;;
37407;SDS011;24866;50.248;8.252;2023-10-31T04:17:52;0.65;;;0.22;;
37407;SDS011;24866;50.248;8.252;2023-10-31T04:20:22;2.78;;;0.20;;
37407;SDS011;24866;50.248;8.252;2023-10-31T04:22:54;0.70;;;0.30;;
37407;SDS011;24866;50.248;8.252;2023-10-31T04:25:23;0.35;;;0.28;;
37407;SDS011;24866;50.248;8.252;2023-10-31T04:27:55;1.38;;;0.50;;
37407;SDS011;24866;50.248;8.252;2023-10-31T04:30:26;1.63;;;0.50;;
37407;SDS011;24866;50.248;8.252;2023-10-31T04:32:55;0.98;;;0.30;;
37407;SDS011;24866;50.248;8.252;2023-10-31T04:35:25;1.02;;;0.40;;
37407;SDS011;24866;50.248;8.252;2023-10-31T04:37:56;1.35;;;0.50;;
37407;SDS011;24866;50.248;8.252;2023-10-31T04:40:26;3.00;;;0.40;;
37407;SDS011;24866;50.248;8.252;2023-10-31T04:42:56;2.60;;;0.45;;
37407;SDS011;24866;50.248;8.252;2023-10-31T04:45:26;2.13;;;0.40;;
37407;SDS011;24866;50.248;8.252;2023-10-31T04:47:55;2.90;;;0.77;;
37407;SDS011;24866;50.248;8.252;2023-10-31T04:50:25;3.95;;;1.85;;
37407;SDS011;24866;50.248;8.252;2023-10-31T04:52:56;0.90;;;0.40;;
37407;SDS011;24866;50.248;8.252;2023-10-31T04:55:26;1.48;;;0.40;;
37407;SDS011;24866;50.248;8.252;2023-10-31T04:57:56;1.25;;;0.40;;
37407;SDS011;24866;50.248;8.252;2023-10-31T05:00:26;0.47;;;0.25;;
37407;SDS011;24866;50.248;8.252;2023-10-31T05:02:56;1.80;;;0.60;;
37407;SDS011;24866;50.248;8.252;2023-10-31T05:05:26;0.75;;;0.30;;
37407;SDS011;24866;50.248;8.252;2023-10-31T05:07:57;0.40;;;0.30;;
37407;SDS011;24866;50.248;8.252;2023-10-31T05:10:27;1.52;;;0.40;;
37407;SDS011;24866;50.248;8.252;2023-10-31T05:12:57;0.70;;;0.32;;
37407;SDS011;24866;50.248;8.252;2023-10-31T05:15:27;2.25;;;0.30;;
37407;SDS011;24866;50.248;8.252;2023-10-31T05:17:57;0.80;;;0.40;;
37407;SDS011;24866;50.248;8.252;2023-10-31T05:20:26;2.25;;;0.63;;
37407;SDS011;24866;50.248;8.252;2023-10-31T05:22:58;1.25;;;0.40;;
37407;SDS011;24866;50.248;8.252;2023-10-31T05:25:27;1.52;;;0.43;;
37407;SDS011;24866;50.248;8.252;2023-10-31T05:27:57;0.50;;;0.30;;
37407;SDS011;24866;50.248;8.252;2023-10-31T05:30:27;0.77;;;0.40;;
37407;SDS011;24866;50.248;8.252;2023-10-31T05:32:57;3.92;;;0.82;;
37407;SDS011;24866;50.248;8.252;2023-10-31T05:35:26;1.63;;;0.32;;
37407;SDS011;24866;50.248;8.252;2023-10-31T05:37:58;0.77;;;0.50;;
37407;SDS011;24866;50.248;8.252;2023-10-31T05:40:28;1.98;;;0.40;;
37407;SDS011;24866;50.248;8.252;2023-10-31T05:42:57;2.40;;;0.40;;
37407;SDS011;24866;50.248;8.252;2023-10-31T05:45:27;2.92;;;0.40;;
37407;SDS011;24866;50.248;8.252;2023-10-31T05:47:57;1.38;;;0.43;;
37407;SDS011;24866;50.248;8.252;2023-10-31T05:50:27;1.92;;;0.50;;
37407;SDS011;24866;50.248;8.252;2023-10-31T05:52:58;5.43;;;0.85;;
37407;SDS011;24866;50.248;8.252;2023-10-31T05:55:28;1.48;;;0.60;;
37407;SDS011;24866;50.248;8.252;2023-10-31T05:57:58;3.45;;;0.90;;
37407;SDS011;24866;50.248;8.252;2023-10-31T06:00:28;1.73;;;0.57;;
37407;SDS011;24866;50.248;8.252;2023-10-31T06:02:57;4.25;;;0.75;;
37407;SDS011;24866;50.248;8.252;2023-10-31T06:05:27;1.13;;;0.50;;
37407;SDS011;24866;50.248;8.252;2023-10-31T06:07:58;1.20;;;0.57;;
37407;SDS011;24866;50.248;8.252;2023-10-31T06:10:29;1.33;;;0.80;;
37407;SDS011;24866;50.248;8.252;2023-10-31T06:12:58;4.07;;;0.60;;
37407;SDS011;24866;50.248;8.252;2023-10-31T06:15:29;2.40;;;0.63;;
37407;SDS011;24866;50.248;8.252;2023-10-31T06:17:59;2.25;;;0.47;;
37407;SDS011;24866;50.248;8.252;2023-10-31T06:20:29;1.38;;;0.50;;
37407;SDS011;24866;50.248;8.252;2023-10-31T06:23:00;1.20;;;0.45;;
37407;SDS011;24866;50.248;8.252;2023-10-31T06:25:31;2.08;;;0.50;;
37407;SDS011;24866;50.248;8.252;2023-10-31T06:28:01;1.50;;;0.52;;
37407;SDS011;24866;50.248;8.252;2023-10-31T06:30:31;1.42;;;0.57;;
37407;SDS011;24866;50.248;8.252;2023-10-31T06:33:01;1.35;;;0.60;;
37407;SDS011;24866;50.248;8.252;2023-10-31T06:35:31;1.45;;;0.50;;
37407;SDS011;24866;50.248;8.252;2023-10-31T06:38:02;2.97;;;0.52;;
37407;SDS011;24866;50.248;8.252;2023-10-31T06:40:32;1.10;;;0.40;;
37407;SDS011;24866;50.248;8.252;2023-10-31T06:43:02;0.77;;;0.40;;
37407;SDS011;24866;50.248;8.252;2023-10-31T06:45:32;1.10;;;0.40;;
37407;SDS011;24866;50.248;8.252;2023-10-31T06:48:02;1.55;;;0.45;;
37407;SDS011;24866;50.248;8.252;2023-10-31T06:50:33;1.27;;;0.45;;
37407;SDS011;24866;50.248;8.252;2023-10-31T06:53:04;0.95;;;0.38;;
37407;SDS011;24866;50.248;8.252;2023-10-31T06:55:34;1.13;;;0.65;;
37407;SDS011;24866;50.248;8.252;2023-10-31T06:58:04;2.38;;;0.50;;
37407;SDS011;24866;50.248;8.252;2023-10-31T07:00:34;0.85;;;0.55;;
37407;SDS011;24866;50.248;8.252;2023-10-31T07:03:05;1.02;;;0.52;;
37407;SDS011;24866;50.248;8.252;2023-10-31T07:05:37;4.10;;;0.68;;
37407;SDS011;24866;50.248;8.252;2023-10-31T07:08:09;1.40;;;0.63;;
37407;SDS011;24866;50.248;8.252;2023-10-31T07:10:39;1.17;;;0.32;;
37407;SDS011;24866;50.248;8.252;2023-10-31T07:13:09;0.82;;;0.43;;
37407;SDS011;24866;50.248;8.252;2023-10-31T07:15:39;2.67;;;0.50;;
37407;SDS011;24866;50.248;8.252;2023-10-31T07:18:09;1.33;;;0.60;;
37407;SDS011;24866;50.248;8.252;2023-10-31T07:20:39;1.58;;;0.50;;
37407;SDS011;24866;50.248;8.252;2023-10-31T07:23:11;2.40;;;0.90;;
37407;SDS011;24866;50.248;8.252;2023-10-31T07:25:41;2.92;;;0.90;;
37407;SDS011;24866;50.248;8.252;2023-10-31T07:28:11;0.90;;;0.50;;
37407;SDS011;24866;50.248;8.252;2023-10-31T07:30:41;0.98;;;0.50;;
37407;SDS011;24866;50.248;8.252;2023-10-31T07:33:11;1.60;;;0.50;;
37407;SDS011;24866;50.248;8.252;2023-10-31T07:35:41;1.05;;;0.60;;
37407;SDS011;24866;50.248;8.252;2023-10-31T07:38:12;1.88;;;0.50;;
37407;SDS011;24866;50.248;8.252;2023-10-31T07:40:43;2.70;;;0.80;;
37407;SDS011;24866;50.248;8.252;2023-10-31T07:43:12;1.42;;;0.65;;
37407;SDS011;24866;50.248;8.252;2023-10-31T07:45:42;1.58;;;0.70;;
37407;SDS011;24866;50.248;8.252;2023-10-31T07:48:12;1.73;;;1.02;;
37407;SDS011;24866;50.248;8.252;2023-10-31T07:50:42;1.45;;;0.68;;
37407;SDS011;24866;50.248;8.252;2023-10-31T07:53:13;1.15;;;0.60;;
37407;SDS011;24866;50.248;8.252;2023-10-31T07:55:43;2.35;;;0.60;;
37407;SDS011;24866;50.248;8.252;2023-10-31T07:58:13;1.45;;;0.70;;
37407;SDS011;24866;50.248;8.252;2023-10-31T08:00:43;1.20;;;0.50;;
37407;SDS011;24866;50.248;8.252;2023-10-31T08:03:13;1.80;;;0.50;;
37407;SDS011;24866;50.248;8.252;2023-10-31T08:05:43;2.85;;;0.90;;
37407;SDS011;24866;50.248;8.252;2023-10-31T08:08:14;1.77;;;0.98;;
37407;SDS011;24866;50.248;8.252;2023-10-31T08:10:44;2.70;;;0.70;;
37407;SDS011;24866;50.248;8.252;2023-10-31T08:13:13;1.20;;;0.57;;
37407;SDS011;24866;50.248;8.252;2023-10-31T08:15:43;4.15;;;0.80;;
37407;SDS011;24866;50.248;8.252;2023-10-31T08:18:13;1.75;;;0.68;;
37407;SDS011;24866;50.248;8.252;2023-10-31T08:20:43;3.25;;;0.77;;
37407;SDS011;24866;50.248;8.252;2023-10-31T08:23:18;3.10;;;0.70;;
37407;SDS011;24866;50.248;8.252;2023-10-31T08:25:48;3.10;;;0.73;;
37407;SDS011;24866;50.248;8.252;2023-10-31T08:28:18;1.77;;;0.57;;
37407;SDS011;24866;50.248;8.252;2023-10-31T08:30:49;1.45;;;0.60;;
37407;SDS011;24866;50.248;8.252;2023-10-31T08:33:19;5.45;;;0.93;;
37407;SDS011;24866;50.248;8.252;2023-10-31T08:35:49;1.20;;;0.47;;
37407;SDS011;24866;50.248;8.252;2023-10-31T08:38:21;1.52;;;0.73;;
37407;SDS011;24866;50.248;8.252;2023-10-31T08:40:51;2.20;;;1.10;;
37407;SDS011;24866;50.248;8.252;2023-10-31T08:43:21;1.38;;;0.50;;
37407;SDS011;24866;50.248;8.252;2023-10-31T08:45:51;2.00;;;0.80;;
37407;SDS011;24866;50.248;8.252;2023-10-31T08:48:21;1.55;;;0.70;;
37407;SDS011;24866;50.248;8.252;2023-10-31T08:50:51;4.63;;;0.68;;
37407;SDS011;24866;50.248;8.252;2023-10-31T08:53:22;3.05;;;0.82;;
37407;SDS011;24866;50.248;8.252;2023-10-31T08:55:52;3.13;;;0.90;;
37407;SDS011;24866;50.248;8.252;2023-10-31T08:58:22;1.15;;;0.40;;
37407;SDS011;24866;50.248;8.252;2023-10-31T09:00:52;2.95;;;0.77;;
37407;SDS011;24866;50.248;8.252;2023-10-31T09:03:22;2.78;;;0.75;;
37407;SDS011;24866;50.248;8.252;2023-10-31T09:05:52;2.03;;;0.70;;
37407;SDS011;24866;50.248;8.252;2023-10-31T09:08:24;0.93;;;0.43;;
37407;SDS011;24866;50.248;8.252;2023-10-31T09:10:53;2.80;;;0.70;;
37407;SDS011;24866;50.248;8.252;2023-10-31T09:13:23;0.77;;;0.50;;
37407;SDS011;24866;50.248;8.252;2023-10-31T09:15:53;0.98;;;0.50;;
37407;SDS011;24866;50.248;8.252;2023-10-31T09:18:23;1.65;;;0.50;;
37407;SDS011;24866;50.248;8.252;2023-10-31T09:20:54;3.00;;;0.60;;
37407;SDS011;24866;50.248;8.252;2023-10-31T09:23:25;2.90;;;0.55;;
37407;SDS011;24866;50.248;8.252;2023-10-31T09:25:57;2.65;;;0.43;;
37407;SDS011;24866;50.248;8.252;2023-10-31T09:28:27;1.30;;;0.47;;
37407;SDS011;24866;50.248;8.252;2023-10-31T09:30:57;2.30;;;0.55;;
37407;SDS011;24866;50.248;8.252;2023-10-31T09:33:29;1.70;;;0.60;;
37407;SDS011;24866;50.248;8.252;2023-10-31T09:35:59;3.50;;;0.70;;
37407;SDS011;24866;50.248;8.252;2023-10-31T09:38:31;2.63;;;0.60;;
37407;SDS011;24866;50.248;8.252;2023-10-31T09:41:01;1.48;;;0.60;;
37407;SDS011;24866;50.248;8.252;2023-10-31T09:43:31;0.82;;;0.40;;
37407;SDS011;24866;50.248;8.252;2023-10-31T09:46:01;2.00;;;0.68;;
37407;SDS011;24866;50.248;8.252;2023-10-31T09:48:32;3.88;;;1.35;;
37407;SDS011;24866;50.248;8.252;2023-10-31T09:51:03;0.77;;;0.40;;
37407;SDS011;24866;50.248;8.252;2023-10-31T09:53:36;2.63;;;0.60;;
37407;SDS011;24866;50.248;8.252;2023-10-31T09:56:07;2.65;;;0.50;;
37407;SDS011;24866;50.248;8.252;2023-10-31T09:58:38;2.05;;;0.30;;
37407;SDS011;24866;50.248;8.252;2023-10-31T10:01:09;3.60;;;0.50;;
37407;SDS011;24866;50.248;8.252;2023-10-31T10:03:40;2.95;;;0.40;;
37407;SDS011;24866;50.248;8.252;2023-10-31T10:06:10;3.67;;;0.88;;
37407;SDS011;24866;50.248;8.252;2023-10-31T10:08:41;1.45;;;0.90;;
37407;SDS011;24866;50.248;8.252;2023-10-31T10:11:11;1.40;;;0.52;;
37407;SDS011;24866;50.248;8.252;2023-10-31T10:13:41;2.15;;;0.47;;
37407;SDS011;24866;50.248;8.252;2023-10-31T10:16:11;1.38;;;0.45;;
37407;SDS011;24866;50.248;8.252;2023-10-31T10:18:41;1.50;;;0.50;;
37407;SDS011;24866;50.248;8.252;2023-10-31T10:21:13;0.60;;;0.30;;
37407;SDS011;24866;50.248;8.252;2023-10-31T10:23:46;3.72;;;0.55;;
37407;SDS011;24866;50.248;8.252;2023-10-31T10:26:17;1.70;;;0.50;;
37407;SDS011;24866;50.248;8.252;2023-10-31T10:28:49;1.50;;;0.57;;
37407;SDS011;24866;50.248;8.252;2023-10-31T10:31:19;2.38;;;0.38;;
37407;SDS011;24866;50.248;8.252;2023-10-31T10:33:49;4.93;;;0.60;;
37407;SDS011;24866;50.248;8.252;2023-10-31T10:36:19;1.08;;;0.40;;
37407;SDS011;24866;50.248;8.252;2023-10-31T10:38:50;1.90;;;0.40;;
37407;SDS011;24866;50.248;8.252;2023-10-31T10:41:25;1.00;;;0.40;;
37407;SDS011;24866;50.248;8.252;2023-10-31T10:43:56;0.75;;;0.32;;
37407;SDS011;24866;50.248;8.252;2023-10-31T10:46:35;1.08;;;0.20;;
37407;SDS011;24866;50.248;8.252;2023-10-31T10:49:06;2.58;;;0.30;;
37407;SDS011;24866;50.248;8.252;2023-10-31T10:51:40;2.00;;;0.40;;
37407;SDS011;24866;50.248;8.252;2023-10-31T10:54:18;2.88;;;0.50;;
37407;SDS011;24866;50.248;8.252;2023-10-31T10:56:58;1.75;;;0.43;;
37407;SDS011;24866;50.248;8.252;2023-10-31T10:59:38;1.13;;;0.43;;
37407;SDS011;24866;50.248;8.252;2023-10-31T11:02:11;3.63;;;0.63;;
37407;SDS011;24866;50.248;8.252;2023-10-31T11:04:43;7.72;;;0.85;;
37407;SDS011;24866;50.248;8.252;2023-10-31T11:07:13;1.00;;;0.30;;
37407;SDS011;24866;50.248;8.252;2023-10-31T11:09:49;1.00;;;0.38;;
37407;SDS011;24866;50.248;8.252;2023-10-31T11:12:19;4.15;;;0.52;;
37407;SDS011;24866;50.248;8.252;2023-10-31T11:14:51;1.60;;;0.50;;
37407;SDS011;24866;50.248;8.252;2023-10-31T11:17:22;1.60;;;0.50;;
37407;SDS011;24866;50.248;8.252;2023-10-31T11:19:56;2.63;;;0.40;;
37407;SDS011;24866;50.248;8.252;2023-10-31T11:22:36;0.75;;;0.30;;
37407;SDS011;24866;50.248;8.252;2023-10-31T11:25:09;2.70;;;0.38;;
37407;SDS011;24866;50.248;8.252;2023-10-31T11:27:42;2.08;;;0.30;;
37407;SDS011;24866;50.248;8.252;2023-10-31T11:30:19;2.40;;;0.32;;
37407;SDS011;24866;50.248;8.252;2023-10-31T11:32:57;0.50;;;0.22;;
37407;SDS011;24866;50.248;8.252;2023-10-31T11:35:29;2.78;;;0.40;;
37407;SDS011;24866;50.248;8.252;2023-10-31T11:38:03;1.33;;;0.35;;
37407;SDS011;24866;50.248;8.252;2023-10-31T11:40:35;2.53;;;0.50;;
37407;SDS011;24866;50.248;8.252;2023-10-31T11:43:06;3.85;;;0.55;;
37407;SDS011;24866;50.248;8.252;2023-10-31T11:45:37;4.72;;;0.73;;
37407;SDS011;24866;50.248;8.252;2023-10-31T11:48:10;4.35;;;0.50;;
37407;SDS011;24866;50.248;8.252;2023-10-31T11:50:40;3.17;;;0.57;;
37407;SDS011;24866;50.248;8.252;2023-10-31T11:53:11;2.25;;;0.65;;
37407;SDS011;24866;50.248;8.252;2023-10-31T11:55:43;2.60;;;0.50;;
37407;SDS011;24866;50.248;8.252;2023-10-31T11:58:15;3.65;;;0.60;;
37407;SDS011;24866;50.248;8.252;2023-10-31T12:00:46;3.38;;;0.50;;
37407;SDS011;24866;50.248;8.252;2023-10-31T12:03:17;2.03;;;0.40;;
37407;SDS011;24866;50.248;8.252;2023-10-31T12:05:51;2.03;;;0.43;;
37407;SDS011;24866;50.248;8.252;2023-10-31T12:08:26;3.70;;;0.70;;
37407;SDS011;24866;50.248;8.252;2023-10-31T12:11:07;4.43;;;0.57;;
37407;SDS011;24866;50.248;8.252;2023-10-31T12:13:39;2.65;;;0.40;;
37407;SDS011;24866;50.248;8.252;2023-10-31T12:16:10;0.97;;;0.40;;
37407;SDS011;24866;50.248;8.252;2023-10-31T12:18:40;1.83;;;0.60;;
37407;SDS011;24866;50.248;8.252;2023-10-31T12:21:10;4.90;;;1.63;;
37407;SDS011;24866;50.248;8.252;2023-10-31T12:23:43;2.13;;;0.60;;
37407;SDS011;24866;50.248;8.252;2023-10-31T12:26:14;2.42;;;0.70;;
37407;SDS011;24866;50.248;8.252;2023-10-31T12:28:50;2.88;;;0.65;;
37407;SDS011;24866;50.248;8.252;2023-10-31T12:31:34;4.35;;;0.60;;
37407;SDS011;24866;50.248;8.252;2023-10-31T12:34:07;2.80;;;0.80;;
37407;SDS011;24866;50.248;8.252;2023-10-31T12:36:37;4.57;;;0.73;;
37407;SDS011;24866;50.248;8.252;2023-10-31T12:39:09;2.25;;;0.70;;
37407;SDS011;24866;50.248;8.252;2023-10-31T12:41:41;2.30;;;0.50;;
37407;SDS011;24866;50.248;8.252;2023-10-31T12:44:13;3.53;;;0.73;;
37407;SDS011;24866;50.248;8.252;2023-10-31T12:46:52;1.60;;;0.70;;
37407;SDS011;24866;50.248;8.252;2023-10-31T12:49:22;2.10;;;0.30;;
37407;SDS011;24866;50.248;8.252;2023-10-31T12:51:56;5.70;;;0.75;;
37407;SDS011;24866;50.248;8.252;2023-10-31T12:54:28;2.17;;;0.60;;
37407;SDS011;24866;50.248;8.252;2023-10-31T12:57:00;2.83;;;0.88;;
37407;SDS011;24866;50.248;8.252;2023-10-31T12:59:32;4.75;;;0.68;;
37407;SDS011;24866;50.248;8.252;2023-10-31T13:02:04;3.33;;;1.05;;
37407;SDS011;24866;50.248;8.252;2023-10-31T13:04:36;4.65;;;0.52;;
37407;SDS011;24866;50.248;8.252;2023-10-31T13:07:06;3.85;;;0.90;;
37407;SDS011;24866;50.248;8.252;2023-10-31T13:09:37;2.28;;;0.70;;
37407;SDS011;24866;50.248;8.252;2023-10-31T13:12:10;2.67;;;0.68;;
37407;SDS011;24866;50.248;8.252;2023-10-31T13:14:40;6.82;;;0.80;;
37407;SDS011;24866;50.248;8.252;2023-10-31T13:17:10;2.25;;;0.40;;
37407;SDS011;24866;50.248;8.252;2023-10-31T13:19:40;2.15;;;0.50;;
37407;SDS011;24866;50.248;8.252;2023-10-31T13:22:10;1.45;;;0.30;;
37407;SDS011;24866;50.248;8.252;2023-10-31T13:24:43;1.73;;;0.57;;
37407;SDS011;24866;50.248;8.252;2023-10-31T13:27:15;1.60;;;0.88;;
37407;SDS011;24866;50.248;8.252;2023-10-31T13:29:45;3.17;;;1.40;;
37407;SDS011;24866;50.248;8.252;2023-10-31T13:32:17;5.13;;;0.65;;
37407;SDS011;24866;50.248;8.252;2023-10-31T13:34:48;6.88;;;1.33;;
37407;SDS011;24866;50.248;8.252;2023-10-31T13:37:18;3.72;;;0.88;;
37407;SDS011;24866;50.248;8.252;2023-10-31T13:39:48;4.20;;;0.77;;
37407;SDS011;24866;50.248;8.252;2023-10-31T13:42:20;1.83;;;0.70;;
37407;SDS011;24866;50.248;8.252;2023-10-31T13:44:50;3.88;;;0.82;;
37407;SDS011;24866;50.248;8.252;2023-10-31T13:47:19;3.95;;;0.60;;
37407;SDS011;24866;50.248;8.252;2023-10-31T13:49:49;5.80;;;0.95;;
37407;SDS011;24866;50.248;8.252;2023-10-31T13:52:21;6.72;;;0.85;;
37407;SDS011;24866;50.248;8.252;2023-10-31T13:54:51;4.60;;;0.63;;
37407;SDS011;24866;50.248;8.252;2023-10-31T13:57:22;4.03;;;0.93;;
37407;SDS011;24866;50.248;8.252;2023-10-31T13:59:52;2.58;;;0.90;;
37407;SDS011;24866;50.248;8.252;2023-10-31T14:02:22;3.95;;;1.13;;
37407;SDS011;24866;50.248;8.252;2023-10-31T14:04:52;4.05;;;0.80;;
37407;SDS011;24866;50.248;8.252;2023-10-31T14:07:22;7.10;;;0.80;;
37407;SDS011;24866;50.248;8.252;2023-10-31T14:09:52;4.15;;;1.00;;
37407;SDS011;24866;50.248;8.252;2023-10-31T14:12:25;4.90;;;0.80;;
37407;SDS011;24866;50.248;8.252;2023-10-31T14:14:58;2.28;;;0.75;;
37407;SDS011;24866;50.248;8.252;2023-10-31T14:17:28;2.63;;;0.70;;
37407;SDS011;24866;50.248;8.252;2023-10-31T14:20:01;4.25;;;0.77;;
37407;SDS011;24866;50.248;8.252;2023-10-31T14:22:32;4.85;;;1.27;;
37407;SDS011;24866;50.248;8.252;2023-10-31T14:25:01;6.22;;;0.90;;
37407;SDS011;24866;50.248;8.252;2023-10-31T14:27:34;2.20;;;0.70;;
37407;SDS011;24866;50.248;8.252;2023-10-31T14:30:07;4.50;;;1.17;;
37407;SDS011;24866;50.248;8.252;2023-10-31T14:32:38;5.75;;;0.95;;
37407;SDS011;24866;50.248;8.252;2023-10-31T14:35:08;5.60;;;0.90;;
37407;SDS011;24866;50.248;8.252;2023-10-31T14:37:38;4.78;;;0.80;;
37407;SDS011;24866;50.248;8.252;2023-10-31T14:40:08;5.80;;;1.02;;
37407;SDS011;24866;50.248;8.252;2023-10-31T14:42:40;8.00;;;1.23;;
37407;SDS011;24866;50.248;8.252;2023-10-31T14:45:10;7.45;;;2.00;;
37407;SDS011;24866;50.248;8.252;2023-10-31T14:47:39;5.35;;;1.00;;
37407;SDS011;24866;50.248;8.252;2023-10-31T14:50:15;3.95;;;0.77;;
37407;SDS011;24866;50.248;8.252;2023-10-31T14:52:45;5.13;;;1.00;;
37407;SDS011;24866;50.248;8.252;2023-10-31T14:55:18;5.90;;;1.10;;
37407;SDS011;24866;50.248;8.252;2023-10-31T14:57:49;4.20;;;0.70;;
37407;SDS011;24866;50.248;8.252;2023-10-31T15:00:19;2.97;;;0.88;;
37407;SDS011;24866;50.248;8.252;2023-10-31T15:02:52;3.78;;;0.88;;
37407;SDS011;24866;50.248;8.252;2023-10-31T15:05:21;5.43;;;1.10;;
37407;SDS011;24866;50.248;8.252;2023-10-31T15:07:52;4.38;;;1.48;;
37407;SDS011;24866;50.248;8.252;2023-10-31T15:10:22;4.28;;;1.00;;